createdAt,value
2022-11-06T00:01:23.470Z,26.75
2022-11-06T00:03:56.826Z,26.48
2022-11-06T00:06:47.148Z,26.23
2022-11-06T00:09:22.095Z,26.60
2022-11-06T00:11:54.735Z,25.08
2022-11-06T00:14:27.490Z,27.65
2022-11-06T00:17:00.273Z,27.10
2022-11-06T00:19:32.916Z,25.85
2022-11-06T00:22:07.010Z,26.87
2022-11-06T00:24:39.438Z,27.03
2022-11-06T00:27:12.018Z,26.35
2022-11-06T00:29:44.840Z,26.95
2022-11-06T00:32:17.211Z,26.12
2022-11-06T00:34:50.022Z,26.75
2022-11-06T00:37:22.803Z,28.27
2022-11-06T00:39:56.232Z,25.88
2022-11-06T00:42:28.984Z,27.13
2022-11-06T00:45:02.006Z,25.80
2022-11-06T00:47:34.575Z,25.90
2022-11-06T00:50:30.035Z,26.02
2022-11-06T00:53:02.440Z,25.83
2022-11-06T00:55:35.299Z,25.57
2022-11-06T00:58:08.085Z,26.42
2022-11-06T01:00:41.197Z,28.10
2022-11-06T01:03:13.709Z,25.97
2022-11-06T01:05:46.939Z,26.93
2022-11-06T01:08:19.482Z,26.10
2022-11-06T01:10:51.927Z,24.27
2022-11-06T01:13:24.554Z,25.48
2022-11-06T01:15:56.929Z,27.55
2022-11-06T01:18:29.382Z,25.43
2022-11-06T01:21:10.425Z,24.75
2022-11-06T01:23:43.214Z,25.97
2022-11-06T01:26:28.840Z,25.88
2022-11-06T01:28:50.724Z,25.57
2022-11-06T01:31:27.079Z,25.30
2022-11-06T01:34:01.542Z,25.95
2022-11-06T01:36:35.103Z,24.63
2022-11-06T01:39:09.624Z,24.00
2022-11-06T01:41:47.210Z,23.87
2022-11-06T01:44:48.457Z,24.82
2022-11-06T01:47:25.358Z,23.85
2022-11-06T01:50:05.195Z,25.48
2022-11-06T01:52:38.240Z,23.67
2022-11-06T01:55:21.455Z,24.37
2022-11-06T01:57:54.032Z,23.00
2022-11-06T02:00:27.849Z,26.12
2022-11-06T02:03:00.996Z,23.37
2022-11-06T02:05:34.450Z,23.47
2022-11-06T02:08:08.093Z,24.43
2022-11-06T02:10:40.472Z,24.77
2022-11-06T02:13:44.418Z,23.52
2022-11-06T02:16:28.711Z,23.70
2022-11-06T02:19:31.449Z,22.95
2022-11-06T02:22:30.923Z,23.07
2022-11-06T02:25:25.739Z,25.60
2022-11-06T02:28:08.221Z,24.15
2022-11-06T02:30:44.456Z,24.23
2022-11-06T02:33:33.361Z,24.92
2022-11-06T02:36:09.901Z,22.65
2022-11-06T02:38:50.331Z,21.73
2022-11-06T02:41:32.735Z,22.02
2022-11-06T02:44:08.149Z,23.85
2022-11-06T02:46:50.148Z,23.75
2022-11-06T02:49:47.361Z,24.40
2022-11-06T02:52:30.253Z,23.18
2022-11-06T02:55:10.379Z,23.20
2022-11-06T02:57:47.165Z,23.32
2022-11-06T03:00:19.716Z,21.73
2022-11-06T03:03:04.664Z,24.80
2022-11-06T03:05:48.796Z,22.27
2022-11-06T03:08:54.910Z,24.37
2022-11-06T03:11:30.881Z,24.47
2022-11-06T03:14:20.019Z,25.23
2022-11-06T03:17:18.592Z,24.02
2022-11-06T03:20:09.505Z,22.80
2022-11-06T03:23:08.314Z,24.47
2022-11-06T03:26:10.459Z,25.10
2022-11-06T03:28:59.410Z,22.58
2022-11-06T03:31:39.509Z,25.15
2022-11-06T03:34:16.348Z,22.52
2022-11-06T03:36:53.160Z,23.65
2022-11-06T03:39:33.175Z,23.25
2022-11-06T03:42:16.720Z,23.20
2022-11-06T03:44:53.523Z,24.70
2022-11-06T03:47:36.448Z,24.67
2022-11-06T03:50:29.643Z,24.50
2022-11-06T03:53:19.587Z,25.08
2022-11-06T03:55:58.699Z,23.70
2022-11-06T03:58:35.530Z,24.52
2022-11-06T04:01:09.855Z,25.23
2022-11-06T04:03:47.268Z,25.15
2022-11-06T04:06:30.494Z,24.90
2022-11-06T04:09:23.636Z,26.43
2022-11-06T04:12:09.114Z,27.05
2022-11-06T04:14:44.330Z,26.17
2022-11-06T04:17:16.898Z,24.72
2022-11-06T04:19:53.786Z,25.92
2022-11-06T04:22:48.771Z,26.20
2022-11-06T04:26:15.623Z,23.85
2022-11-06T04:29:18.890Z,24.52
2022-11-06T04:32:11.375Z,26.40
2022-11-06T04:34:49.590Z,27.17
2022-11-06T04:37:41.737Z,28.32
2022-11-06T04:40:55.097Z,28.15
2022-11-06T04:43:47.335Z,27.17
2022-11-06T04:46:33.293Z,26.10
2022-11-06T04:49:06.162Z,26.30
2022-11-06T04:51:39.459Z,28.92
2022-11-06T04:54:12.754Z,27.10
2022-11-06T04:56:46.538Z,27.93
2022-11-06T04:59:20.138Z,27.70
2022-11-06T05:01:53.007Z,26.97
2022-11-06T05:04:26.142Z,25.35
2022-11-06T05:06:58.552Z,26.42
2022-11-06T05:09:31.151Z,26.65
2022-11-06T05:12:05.770Z,25.10
2022-11-06T05:14:39.127Z,25.25
2022-11-06T05:17:11.832Z,27.73
2022-11-06T05:19:44.387Z,25.95
2022-11-06T05:22:35.174Z,25.77
2022-11-06T05:25:08.688Z,26.85
2022-11-06T05:27:41.357Z,27.65
2022-11-06T05:30:14.855Z,29.02
2022-11-06T05:32:48.061Z,31.48
2022-11-06T05:35:21.522Z,28.95
2022-11-06T05:38:02.465Z,30.10
2022-11-06T05:40:35.103Z,29.52
2022-11-06T05:43:08.595Z,30.17
2022-11-06T05:45:41.389Z,29.15
2022-11-06T05:48:14.158Z,30.30
2022-11-06T05:50:46.873Z,29.72
2022-11-06T05:53:21.114Z,29.42
2022-11-06T05:55:53.485Z,29.95
2022-11-06T05:58:26.424Z,29.70
2022-11-06T06:00:59.176Z,26.80
2022-11-06T06:03:31.892Z,29.80
2022-11-06T06:06:04.729Z,28.73
2022-11-06T06:08:37.343Z,28.83
2022-11-06T06:11:10.860Z,27.20
2022-11-06T06:13:43.419Z,28.73
2022-11-06T06:16:16.366Z,29.15
2022-11-06T06:18:51.252Z,25.00
2022-11-06T06:21:23.895Z,27.02
2022-11-06T06:23:56.361Z,25.97
2022-11-06T06:26:28.846Z,27.30
2022-11-06T06:29:02.846Z,27.93
2022-11-06T06:31:36.928Z,26.45
2022-11-06T06:34:09.989Z,27.62
2022-11-06T06:36:43.141Z,27.95
2022-11-06T06:39:15.592Z,27.55
2022-11-06T06:41:50.237Z,27.50
2022-11-06T06:44:22.730Z,27.27
2022-11-06T06:46:55.650Z,27.95
2022-11-06T06:49:28.104Z,28.92
2022-11-06T06:52:00.657Z,29.50
2022-11-06T06:54:33.498Z,27.90
2022-11-06T06:57:06.587Z,29.23
2022-11-06T06:59:39.106Z,27.58
2022-11-06T07:02:11.862Z,28.57
2022-11-06T07:04:45.386Z,27.17
2022-11-06T07:07:17.727Z,26.17
2022-11-06T07:09:50.202Z,27.50
2022-11-06T07:12:24.661Z,26.77
2022-11-06T07:14:57.793Z,28.62
2022-11-06T07:17:30.729Z,29.92
2022-11-06T07:20:04.071Z,30.37
2022-11-06T07:22:38.080Z,28.38
2022-11-06T07:25:11.177Z,28.80
2022-11-06T07:27:44.038Z,27.07
2022-11-06T07:30:16.599Z,28.17
2022-11-06T07:32:49.855Z,28.80
2022-11-06T07:35:22.536Z,28.38
2022-11-06T07:37:55.911Z,26.75
2022-11-06T07:40:28.852Z,27.82
2022-11-06T07:43:08.321Z,26.35
2022-11-06T07:45:41.036Z,26.75
2022-11-06T07:48:13.997Z,25.35
2022-11-06T10:45:31.430Z,26.85
2022-11-06T10:51:26.488Z,27.75
2022-11-06T10:54:26.278Z,27.62
2022-11-06T10:57:19.188Z,27.35
2022-11-06T10:59:52.855Z,27.17
2022-11-06T11:02:37.033Z,28.12
2022-11-06T11:05:18.193Z,27.85
2022-11-06T11:07:51.621Z,29.18
2022-11-06T11:10:33.514Z,29.65
2022-11-06T11:13:08.695Z,28.83
2022-11-06T11:15:47.273Z,26.07
2022-11-06T11:18:32.691Z,26.17
2022-11-06T11:21:29.034Z,26.02
2022-11-06T11:24:11.864Z,25.88
2022-11-06T11:26:51.782Z,27.35
2022-11-06T11:29:45.529Z,28.27
2022-11-06T11:32:19.891Z,27.00
2022-11-06T11:34:57.090Z,27.00
2022-11-06T11:37:32.702Z,25.62
2022-11-06T11:40:29.640Z,26.55
2022-11-06T11:43:22.438Z,26.27
2022-11-06T11:46:15.209Z,25.32
2022-11-06T11:48:58.700Z,27.40
2022-11-06T11:51:39.786Z,26.60
2022-11-06T11:54:21.588Z,25.17
2022-11-06T11:57:05.687Z,24.47
2022-11-06T11:59:58.044Z,26.52
2022-11-06T12:05:32.251Z,27.13
2022-11-06T12:08:05.089Z,27.52
2022-11-06T12:10:45.555Z,28.38
2022-11-06T12:13:25.503Z,26.02
2022-11-06T12:16:10.142Z,26.15
2022-11-06T12:18:54.656Z,26.60
2022-11-06T12:21:34.746Z,25.40
2022-11-06T12:24:19.339Z,27.15
2022-11-06T12:27:16.157Z,27.70
2022-11-06T12:29:59.204Z,28.27
2022-11-06T12:32:59.121Z,26.45
2022-11-06T12:35:48.229Z,26.02
2022-11-06T12:38:42.731Z,29.37
2022-11-06T12:41:36.646Z,27.45
2022-11-06T12:44:14.271Z,24.40
2022-11-06T12:47:17.337Z,27.62
2022-11-06T12:50:15.247Z,27.20
2022-11-06T12:53:29.845Z,25.62
2022-11-06T12:56:16.106Z,26.57
2022-11-06T12:59:00.945Z,24.82
2022-11-06T13:01:47.295Z,28.32
2022-11-06T13:04:36.785Z,27.50
2022-11-06T13:07:22.729Z,27.60
2022-11-06T13:10:17.822Z,25.75
2022-11-06T13:13:15.251Z,29.15
2022-11-06T13:16:01.830Z,26.82
2022-11-06T13:18:42.732Z,26.40
2022-11-06T13:21:23.433Z,28.23
2022-11-06T13:24:15.870Z,30.57
2022-11-06T13:26:53.243Z,28.85
2022-11-06T13:29:25.770Z,27.82
2022-11-06T13:32:01.797Z,30.20
2022-11-06T13:34:39.020Z,28.98
2022-11-06T13:37:18.950Z,30.27
2022-11-06T13:39:59.692Z,29.05
2022-11-06T13:42:36.889Z,29.00
2022-11-06T13:45:10.614Z,30.17
2022-11-06T13:48:20.938Z,31.00
2022-11-06T13:51:19.411Z,30.95
2022-11-06T13:54:17.822Z,29.80
2022-11-06T13:57:03.722Z,29.60
2022-11-06T14:00:06.811Z,29.95
2022-11-06T14:03:18.882Z,29.85
2022-11-06T14:06:05.258Z,30.20
2022-11-06T14:08:43.996Z,30.10
2022-11-06T14:11:22.281Z,29.95
2022-11-06T14:14:03.632Z,30.95
2022-11-06T14:16:41.192Z,29.75
2022-11-06T14:19:27.159Z,30.43
2022-11-06T14:22:27.550Z,29.52
2022-11-06T14:25:02.419Z,30.10
2022-11-06T14:27:43.034Z,28.15
2022-11-06T14:31:10.554Z,27.95
2022-11-06T14:33:16.408Z,27.13
2022-11-06T14:35:51.789Z,24.37
2022-11-06T14:38:35.943Z,24.82
2022-11-06T14:41:40.261Z,23.40
2022-11-06T14:44:18.328Z,23.25
2022-11-06T14:46:54.494Z,25.00
2022-11-06T14:49:38.228Z,23.77
2022-11-06T14:52:16.303Z,23.80
2022-11-06T14:55:14.582Z,24.27
2022-11-06T14:57:50.134Z,22.48
2022-11-06T15:00:42.568Z,22.73
2022-11-06T15:03:35.013Z,24.65
2022-11-06T15:06:31.256Z,23.45
2022-11-06T15:09:28.974Z,23.38
2022-11-06T15:12:04.706Z,23.47
2022-11-06T15:14:42.035Z,24.23
2022-11-06T15:17:17.189Z,24.37
2022-11-06T15:19:59.666Z,26.97
2022-11-06T15:22:43.391Z,24.35
2022-11-06T15:25:23.712Z,26.30
2022-11-06T15:28:07.771Z,26.37
2022-11-06T15:31:01.839Z,26.27
2022-11-06T15:33:44.247Z,26.45
2022-11-06T15:36:16.749Z,27.20
2022-11-06T15:38:49.158Z,26.60
2022-11-06T15:41:26.638Z,27.25
2022-11-06T15:43:58.950Z,27.75
2022-11-06T15:46:31.462Z,27.70
2022-11-06T15:49:20.383Z,26.77
2022-11-06T15:52:03.251Z,26.07
2022-11-06T15:54:43.929Z,26.60
2022-11-06T15:57:21.954Z,26.65
2022-11-06T16:00:16.864Z,27.32
2022-11-06T16:02:54.838Z,26.30
2022-11-06T16:05:29.821Z,26.62
2022-11-06T19:47:50.124Z,30.60
2022-11-06T19:50:45.764Z,34.83
2022-11-06T19:52:57.277Z,30.68
2022-11-06T19:55:30.448Z,31.20
2022-11-06T19:58:04.077Z,32.03
2022-11-06T20:00:37.101Z,29.77
2022-11-06T20:03:09.550Z,31.17
2022-11-06T20:05:42.641Z,30.80
2022-11-06T20:08:15.716Z,30.77
2022-11-06T20:10:48.541Z,32.75
2022-11-06T20:13:21.585Z,30.40
2022-11-06T20:16:00.619Z,31.52
2022-11-06T20:18:35.020Z,30.08
2022-11-06T20:21:11.148Z,30.70
2022-11-06T20:23:44.505Z,29.82
2022-11-06T20:26:17.309Z,30.00
2022-11-06T20:28:51.538Z,32.50
2022-11-06T20:31:24.159Z,30.32
2022-11-06T20:33:57.834Z,28.67
2022-11-06T20:36:31.683Z,29.07
2022-11-06T20:39:04.462Z,31.82
2022-11-06T20:41:37.022Z,29.77
2022-11-06T20:44:10.509Z,29.23
2022-11-06T20:46:45.180Z,28.92
2022-11-06T20:49:17.284Z,28.98
2022-11-06T20:52:12.590Z,30.60
2022-11-06T20:54:24.314Z,30.68
2022-11-06T20:56:56.968Z,30.25
2022-11-06T20:59:29.803Z,30.50
2022-11-06T21:02:02.665Z,30.20
2022-11-06T21:04:35.892Z,29.00
2022-11-06T21:07:08.932Z,30.00
2022-11-06T21:09:42.878Z,30.48
2022-11-06T21:15:19.031Z,30.27
2022-11-06T21:17:52.168Z,28.92
2022-11-06T21:20:25.871Z,28.95
2022-11-06T21:22:58.471Z,27.95
2022-11-06T21:25:30.883Z,27.87
2022-11-06T21:28:03.326Z,29.65
2022-11-06T21:30:35.891Z,29.65
2022-11-06T21:33:08.327Z,28.67
2022-11-06T21:35:42.462Z,28.67
2022-11-06T21:38:14.871Z,30.60
2022-11-06T21:40:47.664Z,29.40
2022-11-06T21:43:20.241Z,29.92
2022-11-06T21:45:52.731Z,28.20
2022-11-06T21:48:40.747Z,30.08
2022-11-06T21:51:06.174Z,28.83
2022-11-06T21:53:57.132Z,27.48
2022-11-06T21:56:29.657Z,27.07
2022-11-06T21:59:03.138Z,28.62
2022-11-06T22:01:36.278Z,26.73
2022-11-06T22:04:09.065Z,29.07
2022-11-06T22:06:43.190Z,29.35
2022-11-06T22:09:19.548Z,28.98
2022-11-06T22:11:51.816Z,28.57
2022-11-06T22:14:24.294Z,29.48
2022-11-06T22:16:57.398Z,28.75
2022-11-06T22:19:29.911Z,28.10
2022-11-06T22:22:03.016Z,27.80
2022-11-06T22:24:35.710Z,27.80
2022-11-06T22:27:08.865Z,28.98
2022-11-06T22:29:41.272Z,28.55
2022-11-06T22:32:14.693Z,26.60
2022-11-06T22:34:47.578Z,26.30
2022-11-06T22:37:20.597Z,28.85
2022-11-06T22:39:53.478Z,28.10
2022-11-06T22:42:26.131Z,27.73
2022-11-06T22:44:59.172Z,28.60
2022-11-06T22:47:31.779Z,27.02
2022-11-06T22:50:04.702Z,28.00
2022-11-06T22:52:38.543Z,27.77
2022-11-06T22:55:11.012Z,27.62
2022-11-06T22:57:43.507Z,29.60
2022-11-06T23:00:17.916Z,27.55
2022-11-06T23:05:22.318Z,28.30
2022-11-06T23:07:54.678Z,28.15
2022-11-06T23:10:29.673Z,27.65
2022-11-06T23:13:03.462Z,27.25
2022-11-06T23:15:36.414Z,28.62
2022-11-06T23:18:09.230Z,27.00
2022-11-06T23:20:42.544Z,25.15
2022-11-06T23:23:15.312Z,26.95
2022-11-06T23:25:48.086Z,27.55
2022-11-06T23:28:20.754Z,27.75
2022-11-06T23:30:53.418Z,29.92
2022-11-06T23:33:26.282Z,28.83
2022-11-06T23:35:59.801Z,28.52
2022-11-06T23:38:32.296Z,29.12
2022-11-06T23:41:26.809Z,28.77
2022-11-06T23:43:59.456Z,30.52
2022-11-06T23:46:33.816Z,29.67
2022-11-06T23:49:06.351Z,32.17
2022-11-06T23:51:40.491Z,31.00
2022-11-06T23:54:13.560Z,31.33
2022-11-06T23:56:45.887Z,31.52
2022-11-06T23:59:18.676Z,30.65
